createdAt,value
2022-11-15T00:01:11.196Z,7.30
2022-11-15T00:03:56.126Z,12.82
2022-11-15T00:06:41.344Z,16.30
2022-11-15T00:09:26.612Z,8.13
2022-11-15T00:12:11.638Z,7.30
2022-11-15T00:14:56.553Z,6.75
2022-11-15T00:17:41.630Z,8.07
2022-11-15T00:20:26.523Z,8.90
2022-11-15T00:23:11.679Z,5.78
2022-11-15T00:25:58.494Z,13.65
2022-11-15T00:28:43.820Z,9.55
2022-11-15T00:31:28.823Z,8.68
2022-11-15T00:34:13.845Z,11.70
2022-11-15T00:36:59.093Z,9.38
2022-11-15T00:39:43.948Z,9.27
2022-11-15T00:42:29.075Z,8.68
2022-11-15T00:45:14.373Z,11.95
2022-11-15T00:47:59.623Z,10.13
2022-11-15T00:50:44.703Z,15.13
2022-11-15T00:53:30.222Z,10.55
2022-11-15T00:56:15.537Z,12.02
2022-11-15T00:59:00.491Z,12.13
2022-11-15T01:01:45.695Z,13.45
2022-11-15T01:04:30.604Z,12.68
2022-11-15T01:07:15.564Z,6.38
2022-11-15T01:10:01.089Z,11.13
2022-11-15T01:12:46.323Z,10.88
2022-11-15T01:15:31.457Z,18.02
2022-11-15T01:18:16.507Z,9.98
2022-11-15T01:21:06.234Z,13.93
2022-11-15T01:26:40.959Z,14.57
2022-11-15T01:29:25.831Z,12.55
2022-11-15T01:32:10.928Z,10.40
2022-11-15T01:34:55.779Z,15.00
2022-11-15T01:37:40.763Z,6.20
2022-11-15T01:40:25.716Z,11.35
2022-11-15T01:43:40.448Z,10.57
2022-11-15T01:46:34.514Z,7.97
2022-11-15T01:49:23.472Z,8.38
2022-11-15T01:52:13.545Z,15.50
2022-11-15T01:55:07.980Z,11.52
2022-11-15T01:57:58.050Z,9.02
2022-11-15T02:00:43.377Z,9.70
2022-11-15T02:03:39.122Z,8.00
2022-11-15T02:06:24.047Z,10.60
2022-11-15T02:09:10.335Z,14.75
2022-11-15T02:11:56.673Z,11.70
2022-11-15T02:14:43.566Z,6.63
2022-11-15T02:17:52.208Z,11.80
2022-11-15T02:20:51.694Z,9.80
2022-11-15T02:24:01.207Z,10.73
2022-11-15T02:27:09.538Z,4.50
2022-11-15T02:30:16.522Z,8.88
2022-11-15T02:33:04.125Z,12.85
2022-11-15T02:36:06.851Z,9.52
2022-11-15T02:39:08.815Z,9.38
2022-11-15T02:42:28.542Z,8.18
2022-11-15T02:45:21.295Z,10.82
2022-11-15T02:48:08.233Z,11.85
2022-11-15T02:50:53.468Z,8.93
2022-11-15T02:53:38.637Z,10.23
2022-11-15T02:56:23.576Z,13.48
2022-11-15T02:59:11.732Z,7.38
2022-11-15T03:02:14.696Z,11.02
2022-11-15T03:05:11.953Z,11.65
2022-11-15T03:08:07.108Z,15.88
2022-11-15T03:11:14.562Z,6.03
2022-11-15T03:14:06.804Z,7.72
2022-11-15T03:17:10.699Z,13.70
2022-11-15T03:19:59.868Z,15.43
2022-11-15T03:22:48.358Z,15.13
2022-11-15T03:25:37.564Z,14.75
2022-11-15T03:28:37.712Z,10.57
2022-11-15T03:34:47.301Z,16.23
2022-11-15T03:37:49.665Z,12.93
2022-11-15T03:40:43.157Z,11.93
2022-11-15T03:44:04.242Z,11.32
2022-11-15T03:47:03.124Z,22.42
2022-11-15T03:49:54.779Z,11.38
2022-11-15T03:52:41.974Z,10.63
2022-11-15T03:55:27.260Z,19.67
2022-11-15T03:58:12.529Z,10.98
2022-11-15T04:00:57.830Z,18.05
2022-11-15T04:03:42.916Z,18.33
2022-11-15T04:06:27.821Z,10.68
2022-11-15T04:09:12.927Z,18.48
2022-11-15T04:11:57.874Z,13.68
2022-11-15T04:15:02.756Z,20.83
2022-11-15T04:17:50.161Z,19.85
2022-11-15T04:20:53.883Z,20.25
2022-11-15T04:23:54.025Z,17.48
2022-11-15T04:26:39.211Z,19.02
2022-11-15T04:29:36.568Z,11.43
2022-11-15T04:32:21.728Z,13.90
2022-11-15T04:35:07.219Z,15.07
2022-11-15T04:37:52.368Z,12.57
2022-11-15T04:40:38.673Z,14.77
2022-11-15T04:43:23.877Z,20.83
2022-11-15T04:46:08.845Z,16.42
2022-11-15T04:48:58.604Z,22.10
2022-11-15T04:51:44.580Z,15.35
2022-11-15T04:54:29.624Z,14.52
2022-11-15T04:57:15.240Z,16.45
2022-11-15T05:00:00.392Z,14.80
2022-11-15T05:03:03.879Z,11.48
2022-11-15T05:05:48.978Z,13.10
2022-11-15T05:08:34.158Z,15.88
2022-11-15T05:11:19.393Z,20.80
2022-11-15T05:14:04.427Z,9.52
2022-11-15T05:16:49.778Z,18.77
2022-11-15T05:19:35.106Z,14.10
2022-11-15T05:22:20.524Z,21.73
2022-11-15T05:25:06.756Z,16.20
2022-11-15T05:27:51.830Z,12.10
2022-11-15T05:30:36.970Z,18.95
2022-11-15T05:33:22.033Z,12.98
2022-11-15T05:36:39.304Z,18.17
2022-11-15T05:39:24.491Z,18.00
2022-11-15T05:42:15.460Z,19.25
2022-11-15T05:45:03.326Z,19.50
2022-11-15T05:47:50.320Z,15.60
2022-11-15T05:50:39.411Z,13.32
2022-11-15T05:53:26.637Z,19.25
2022-11-15T05:56:12.352Z,14.65
2022-11-15T05:58:59.932Z,27.05
2022-11-15T06:01:45.758Z,18.83
2022-11-15T06:04:31.192Z,13.25
2022-11-15T06:07:16.673Z,11.52
2022-11-15T06:10:01.865Z,18.80
2022-11-15T06:12:46.637Z,17.10
2022-11-15T06:15:33.297Z,12.50
2022-11-15T06:18:18.437Z,20.08
2022-11-15T06:21:04.071Z,18.40
2022-11-15T06:23:49.244Z,16.80
2022-11-15T06:26:34.435Z,15.52
2022-11-15T06:29:19.741Z,22.73
2022-11-15T06:32:04.971Z,19.02
2022-11-15T06:34:50.738Z,18.95
2022-11-15T06:37:36.091Z,12.70
2022-11-15T06:40:20.912Z,16.83
2022-11-15T06:43:06.998Z,14.90
2022-11-15T06:45:52.268Z,17.17
2022-11-15T06:48:37.389Z,11.93
2022-11-15T06:51:22.719Z,17.77
2022-11-15T06:54:08.093Z,19.50
2022-11-15T06:56:53.191Z,18.42
2022-11-15T06:59:40.646Z,19.17
2022-11-15T07:02:26.067Z,16.08
2022-11-15T07:05:12.129Z,16.38
2022-11-15T07:07:58.368Z,19.02
2022-11-15T07:10:43.570Z,17.00
2022-11-15T07:13:30.140Z,15.13
2022-11-15T07:16:15.854Z,17.15
2022-11-15T07:19:01.221Z,20.40
2022-11-15T07:21:46.340Z,18.15
2022-11-15T07:24:31.626Z,13.23
2022-11-15T07:27:16.547Z,19.20
2022-11-15T07:30:02.057Z,19.02
2022-11-15T07:32:47.560Z,16.35
2022-11-15T07:35:32.853Z,16.30
2022-11-15T07:38:21.615Z,13.70
2022-11-15T07:41:07.805Z,16.98
2022-11-15T07:43:53.593Z,19.33
2022-11-15T07:46:38.780Z,18.60
2022-11-15T07:49:23.600Z,21.60
2022-11-15T07:52:08.665Z,16.08
2022-11-15T07:54:53.552Z,13.75
2022-11-15T07:57:38.557Z,19.77
2022-11-15T08:00:23.903Z,15.02
2022-11-15T08:03:12.270Z,14.48
2022-11-15T08:05:57.537Z,15.38
2022-11-15T08:08:42.325Z,22.95
2022-11-15T08:11:27.343Z,12.63
2022-11-15T08:14:12.290Z,14.73
2022-11-15T08:16:57.508Z,15.10
2022-11-15T08:19:42.583Z,12.68
2022-11-15T08:22:27.530Z,10.10
2022-11-15T08:25:12.774Z,9.50
2022-11-15T08:28:02.289Z,10.60
2022-11-15T08:30:47.099Z,9.68
2022-11-15T08:33:36.370Z,8.45
2022-11-15T08:36:21.932Z,12.32
2022-11-15T08:39:07.012Z,9.25
2022-11-15T08:41:52.186Z,7.00
2022-11-15T08:44:36.953Z,5.35
2022-11-15T08:47:22.319Z,6.90
2022-11-15T08:50:08.267Z,5.97
2022-11-15T08:52:53.359Z,3.25
2022-11-15T08:55:39.351Z,4.13
2022-11-15T08:58:24.636Z,6.00
2022-11-15T09:01:20.008Z,3.22
2022-11-15T09:04:05.148Z,3.97
2022-11-15T09:06:50.626Z,9.90
2022-11-15T09:09:36.020Z,4.05
2022-11-15T09:12:21.148Z,2.95
2022-11-15T09:15:07.127Z,7.85
2022-11-15T09:17:52.538Z,3.05
2022-11-15T09:20:37.975Z,5.47
2022-11-15T09:23:23.178Z,3.65
2022-11-15T09:26:09.094Z,3.78
2022-11-15T09:28:54.325Z,5.93
2022-11-15T09:31:39.533Z,4.88
2022-11-15T09:34:24.829Z,4.10
2022-11-15T09:37:10.102Z,5.40
2022-11-15T09:39:55.471Z,2.50
2022-11-15T09:42:59.766Z,3.58
2022-11-15T09:46:03.698Z,5.40
2022-11-15T09:48:53.997Z,4.88
2022-11-15T09:51:47.637Z,3.83
2022-11-15T09:54:55.719Z,3.63
2022-11-15T09:58:19.763Z,3.03
2022-11-15T10:01:13.085Z,3.72
2022-11-15T10:04:00.138Z,5.25
2022-11-15T10:06:58.976Z,4.72
2022-11-15T10:09:54.031Z,4.55
2022-11-15T10:12:39.625Z,5.53
2022-11-15T10:15:25.236Z,4.65
2022-11-15T10:18:10.280Z,6.95
2022-11-15T10:21:01.073Z,3.88
2022-11-15T10:23:46.256Z,4.47
2022-11-15T10:26:31.264Z,6.78
2022-11-15T10:29:26.516Z,5.63
2022-11-15T10:32:14.065Z,7.70
2022-11-15T10:34:59.137Z,5.88
2022-11-15T10:37:44.208Z,4.57
2022-11-15T10:40:29.225Z,5.93
2022-11-15T10:43:19.828Z,5.07
2022-11-15T10:46:44.988Z,4.22
2022-11-15T10:49:32.112Z,5.05
2022-11-15T10:52:21.307Z,6.05
2022-11-15T10:55:23.465Z,5.60
2022-11-15T10:58:23.497Z,6.03
2022-11-15T11:01:14.851Z,8.73
2022-11-15T11:04:04.631Z,7.03
2022-11-15T11:07:00.025Z,4.25
2022-11-15T11:09:44.837Z,3.20
2022-11-15T11:12:33.150Z,9.60
2022-11-15T11:15:19.434Z,5.15
2022-11-15T11:18:19.243Z,5.10
2022-11-15T11:21:12.817Z,7.88
2022-11-15T11:24:08.756Z,5.90
2022-11-15T11:27:09.120Z,4.43
2022-11-15T11:30:12.317Z,4.32
2022-11-15T11:33:14.568Z,2.40
2022-11-15T11:36:08.633Z,2.38
2022-11-15T11:39:39.890Z,4.15
2022-11-15T11:42:38.516Z,2.03
2022-11-15T11:45:28.466Z,2.28
2022-11-15T11:51:19.819Z,4.93
2022-11-15T11:54:12.233Z,6.82
2022-11-15T11:57:00.984Z,2.70
2022-11-15T12:00:05.051Z,4.77
2022-11-15T12:03:08.940Z,5.22
2022-11-15T12:05:59.745Z,4.80
2022-11-15T12:09:15.670Z,6.93
2022-11-15T12:12:09.845Z,5.07
2022-11-15T12:15:02.072Z,6.90
2022-11-15T12:17:49.190Z,8.77
2022-11-15T12:20:40.684Z,5.88
2022-11-15T12:23:30.780Z,6.45
2022-11-15T12:29:14.017Z,5.07
2022-11-15T12:32:00.956Z,10.40
2022-11-15T12:34:49.762Z,7.53
2022-11-15T12:37:43.762Z,9.55
2022-11-15T12:40:56.702Z,4.25
2022-11-15T12:43:43.896Z,12.55
2022-11-15T12:46:31.894Z,6.65
2022-11-15T12:49:29.115Z,6.70
2022-11-15T12:52:17.161Z,7.88
2022-11-15T12:55:23.299Z,6.43
2022-11-15T12:58:40.442Z,13.80
2022-11-15T13:01:32.179Z,14.20
2022-11-15T13:04:20.272Z,16.23
2022-11-15T13:07:08.434Z,15.13
2022-11-15T13:09:55.817Z,12.93
2022-11-15T13:12:43.805Z,10.68
2022-11-15T13:15:41.128Z,13.77
2022-11-15T13:18:35.018Z,8.53
2022-11-15T13:21:44.030Z,13.93
2022-11-15T13:24:29.257Z,13.40
2022-11-15T13:27:20.369Z,12.23
2022-11-15T13:30:05.934Z,11.93
2022-11-15T13:32:52.318Z,10.10
2022-11-15T13:35:41.271Z,14.23
2022-11-15T13:38:27.108Z,17.35
2022-11-15T13:41:21.319Z,9.25
2022-11-15T13:44:21.187Z,8.30
2022-11-15T13:47:14.649Z,5.43
2022-11-15T13:50:02.095Z,7.20
2022-11-15T13:52:49.946Z,8.40
2022-11-15T13:55:35.142Z,9.63
2022-11-15T13:58:31.277Z,5.90
2022-11-15T14:01:20.734Z,10.35
2022-11-15T14:04:05.944Z,7.82
2022-11-15T14:06:58.173Z,8.00
2022-11-15T14:09:46.150Z,8.02
2022-11-15T14:12:33.173Z,13.20
2022-11-15T14:15:27.226Z,7.07
2022-11-15T14:18:45.815Z,12.02
2022-11-15T14:21:31.078Z,9.38
2022-11-15T14:24:18.946Z,12.90
2022-11-15T14:27:21.584Z,9.65
2022-11-15T14:30:07.288Z,14.38
2022-11-15T14:32:52.663Z,6.95
2022-11-15T14:35:39.781Z,9.30
2022-11-15T14:38:26.408Z,5.38
2022-11-15T14:41:24.736Z,6.15
2022-11-15T14:44:11.932Z,10.15
2022-11-15T14:46:57.018Z,4.38
2022-11-15T14:49:42.069Z,11.88
2022-11-15T14:52:34.289Z,4.32
2022-11-15T14:55:25.285Z,8.68
2022-11-15T14:58:10.798Z,6.38
2022-11-15T15:00:56.142Z,7.82
2022-11-15T15:03:41.578Z,10.10
2022-11-15T15:06:27.276Z,5.43
2022-11-15T15:09:12.428Z,8.18
2022-11-15T15:11:58.896Z,9.63
2022-11-15T15:14:48.915Z,8.65
2022-11-15T15:17:33.925Z,14.80
2022-11-15T15:20:19.302Z,8.75
2022-11-15T15:23:04.508Z,8.77
2022-11-15T15:25:53.676Z,14.40
2022-11-15T15:28:40.526Z,10.77
2022-11-15T15:31:25.945Z,11.95
2022-11-15T15:34:16.444Z,13.57
2022-11-15T15:37:28.359Z,12.88
2022-11-15T15:40:18.241Z,11.43
2022-11-15T15:45:48.320Z,16.90
2022-11-15T15:48:34.812Z,17.70
2022-11-15T15:51:21.064Z,19.63
2022-11-15T15:54:06.228Z,17.70
2022-11-15T15:56:56.045Z,18.73
2022-11-15T15:59:41.699Z,15.47
2022-11-15T16:02:26.786Z,10.05
2022-11-15T16:05:13.204Z,14.38
2022-11-15T16:07:58.316Z,12.10
2022-11-15T16:10:43.587Z,16.75
2022-11-15T16:13:28.564Z,12.85
2022-11-15T16:16:14.413Z,12.23
2022-11-15T16:18:59.384Z,13.10
2022-11-15T16:21:44.300Z,16.73
2022-11-15T16:24:29.535Z,10.10
2022-11-15T16:27:20.533Z,7.88
2022-11-15T16:30:11.856Z,9.38
2022-11-15T16:32:56.929Z,9.40
2022-11-15T16:35:42.139Z,15.23
2022-11-15T16:38:27.465Z,10.70
2022-11-15T16:41:12.689Z,8.80
2022-11-15T16:43:57.472Z,16.02
2022-11-15T16:46:43.372Z,7.97
2022-11-15T16:49:28.503Z,9.82
2022-11-15T16:52:16.479Z,14.32
2022-11-15T16:55:05.446Z,15.20
2022-11-15T16:57:50.693Z,11.05
2022-11-15T17:00:35.858Z,18.20
2022-11-15T17:03:24.909Z,13.07
2022-11-15T17:06:12.001Z,12.30
2022-11-15T17:08:56.842Z,15.27
2022-11-15T17:11:42.637Z,12.00
2022-11-15T17:14:27.481Z,14.98
2022-11-15T17:17:12.878Z,8.35
2022-11-15T17:19:58.280Z,9.30
2022-11-15T17:22:43.514Z,12.32
2022-11-15T17:25:28.758Z,10.38
2022-11-15T17:28:13.739Z,16.48
2022-11-15T17:30:58.860Z,15.88
2022-11-15T17:33:43.953Z,7.22
2022-11-15T17:36:28.924Z,9.00
2022-11-15T17:39:14.054Z,7.57
2022-11-15T17:41:59.606Z,6.80
2022-11-15T17:44:44.651Z,6.53
2022-11-15T17:47:29.580Z,5.22
2022-11-15T17:50:15.291Z,2.70
2022-11-15T17:53:00.296Z,8.77
2022-11-15T17:55:45.467Z,9.15
2022-11-15T17:58:32.088Z,5.80
2022-11-15T18:01:23.412Z,5.32
2022-11-15T18:04:10.022Z,1.25
2022-11-15T18:06:56.462Z,4.00
2022-11-15T18:09:43.981Z,2.20
2022-11-15T18:12:29.404Z,3.40
2022-11-15T18:15:14.717Z,2.67
2022-11-15T18:21:07.441Z,7.35
2022-11-15T18:23:54.504Z,7.10
2022-11-15T18:26:39.380Z,5.28
2022-11-15T18:29:25.254Z,3.95
2022-11-15T18:32:15.182Z,5.97
2022-11-15T18:35:00.099Z,5.90
2022-11-15T18:37:45.250Z,2.25
2022-11-15T18:40:30.656Z,7.22
2022-11-15T18:43:15.895Z,2.72
2022-11-15T18:46:10.840Z,6.51
2022-11-15T18:48:56.538Z,9.40
2022-11-15T18:51:42.117Z,7.35
2022-11-15T18:54:31.299Z,6.13
2022-11-15T18:57:17.064Z,9.93
2022-11-15T19:00:02.529Z,11.82
2022-11-15T19:02:47.356Z,22.13
2022-11-15T19:05:32.380Z,13.93
2022-11-15T19:08:17.503Z,15.02
2022-11-15T19:11:06.404Z,10.00
2022-11-15T19:13:59.544Z,16.17
2022-11-15T19:16:55.070Z,15.70
2022-11-15T19:19:40.270Z,16.45
2022-11-15T19:22:25.590Z,16.15
2022-11-15T19:25:10.834Z,15.75
2022-11-15T19:27:55.723Z,8.82
2022-11-15T19:30:40.660Z,18.20
2022-11-15T19:33:27.911Z,19.80
2022-11-15T19:36:14.500Z,16.52
2022-11-15T19:39:04.966Z,17.52
2022-11-15T19:41:50.206Z,20.65
2022-11-15T19:44:35.397Z,12.32
2022-11-15T19:47:20.214Z,21.25
2022-11-15T19:50:05.877Z,17.20
2022-11-15T19:52:51.161Z,16.27
2022-11-15T19:55:36.292Z,14.82
2022-11-15T19:58:22.193Z,20.02
2022-11-15T20:01:18.139Z,18.75
2022-11-15T20:04:03.463Z,22.75
2022-11-15T20:06:48.725Z,19.20
2022-11-15T20:09:33.842Z,17.85
2022-11-15T20:12:18.941Z,24.65
2022-11-15T20:15:04.247Z,20.35
2022-11-15T20:17:49.144Z,20.48
2022-11-15T20:20:35.631Z,17.50
2022-11-15T20:23:21.222Z,15.38
2022-11-15T20:26:07.053Z,18.75
2022-11-15T20:28:52.397Z,18.02
2022-11-15T20:31:37.593Z,23.60
2022-11-15T20:34:22.704Z,20.27
2022-11-15T20:37:07.774Z,19.35
2022-11-15T20:39:52.623Z,10.80
2022-11-15T20:42:37.630Z,12.35
2022-11-15T20:45:22.422Z,20.45
2022-11-15T20:48:07.484Z,17.17
2022-11-15T20:51:02.794Z,15.63
2022-11-15T20:53:48.733Z,18.63
2022-11-15T20:56:33.620Z,18.48
2022-11-15T20:59:18.552Z,16.70
2022-11-15T21:02:03.646Z,17.17
2022-11-15T21:04:48.757Z,26.15
2022-11-15T21:07:33.630Z,20.67
2022-11-15T21:10:37.151Z,24.88
2022-11-15T21:13:22.910Z,25.23
2022-11-15T21:16:08.389Z,30.30
2022-11-15T21:18:53.557Z,25.60
2022-11-15T21:21:38.784Z,23.67
2022-11-15T21:24:24.662Z,25.83
2022-11-15T21:27:10.073Z,19.58
2022-11-15T21:29:55.105Z,13.60
2022-11-15T21:32:40.216Z,19.50
2022-11-15T21:35:25.319Z,18.92
2022-11-15T21:38:10.498Z,19.10
2022-11-15T21:40:55.631Z,19.92
2022-11-15T21:43:40.630Z,21.52
2022-11-15T21:46:26.422Z,19.38
2022-11-15T21:49:11.638Z,15.95
2022-11-15T21:51:56.700Z,20.05
2022-11-15T21:54:44.364Z,23.00
2022-11-15T21:57:30.168Z,19.70
2022-11-15T22:00:34.314Z,19.98
2022-11-15T22:03:19.576Z,14.18
2022-11-15T22:06:06.142Z,19.98
2022-11-15T22:08:51.096Z,13.40
2022-11-15T22:11:36.246Z,24.55
2022-11-15T22:14:21.431Z,22.77
2022-11-15T22:17:06.341Z,19.77
2022-11-15T22:19:52.778Z,16.13
2022-11-15T22:22:38.319Z,17.23
2022-11-15T22:25:24.035Z,15.18
2022-11-15T22:28:09.244Z,15.02
2022-11-15T22:30:55.126Z,16.58
2022-11-15T22:33:40.844Z,13.25
2022-11-15T22:36:32.892Z,19.35
2022-11-15T22:39:24.009Z,17.48
2022-11-15T22:42:09.302Z,20.73
2022-11-15T22:44:54.137Z,19.73
2022-11-15T22:47:39.356Z,18.83
2022-11-15T22:50:24.803Z,14.15
2022-11-15T22:53:09.957Z,21.40
2022-11-15T22:56:01.162Z,17.92
2022-11-15T22:58:46.143Z,18.15
2022-11-15T23:01:31.323Z,15.40
2022-11-15T23:04:16.828Z,18.83
2022-11-15T23:07:01.793Z,22.83
2022-11-15T23:09:52.135Z,17.25
2022-11-15T23:12:55.926Z,19.38
2022-11-15T23:15:59.677Z,20.83
2022-11-15T23:18:46.065Z,12.38
2022-11-15T23:21:53.749Z,13.38
2022-11-15T23:24:39.036Z,12.20
2022-11-15T23:27:24.241Z,14.30
2022-11-15T23:30:28.620Z,13.48
2022-11-15T23:33:33.565Z,13.95
2022-11-15T23:36:18.929Z,17.48
2022-11-15T23:39:04.372Z,14.85
2022-11-15T23:41:49.763Z,26.58
2022-11-15T23:44:35.052Z,13.30
2022-11-15T23:47:20.376Z,15.23
2022-11-15T23:50:06.372Z,12.88
2022-11-15T23:52:51.517Z,12.95
2022-11-15T23:55:36.761Z,17.83
2022-11-15T23:58:22.100Z,13.73
